Terminal Aerodrome Forecast
Issued by NWS Lake Charles, LA

Home | Current Version | Previous Version | Text Only | Print | Product List | Glossary On
Versions: 1 2 3 4 5 6 7 8 9 10 11 12 13 14 15
000
FTUS44 KLCH 302334
TAFLCH
TAF
KLCH 302334Z 3100/3124 15007KT P6SM VCTS SCT025CB BKN100
      TEMPO 3100/3102 VRB30G40KT 1SM TSRA SCT020 OVC025CB
     FM310400 34003KT P6SM FEW030 SCT200
     FM311500 02008KT P6SM SKC=

USA.gov is the U.S. government's official web portal to all federal, state and local government web resources and services.